sensor_id;sensor_type;location;lat;lon;timestamp;pressure;altitude;pressure_sealevel;temperature;humidity
55610;BME280;41486;52.502;13.486;2023-02-11T00:00:39;102351.72;;;2.28;100.00
55610;BME280;41486;52.502;13.486;2023-02-11T00:03:08;102351.63;;;2.34;100.00
55610;BME280;41486;52.502;13.486;2023-02-11T00:05:36;102352.50;;;2.33;100.00
55610;BME280;41486;52.502;13.486;2023-02-11T00:08:04;102350.84;;;2.29;100.00
55610;BME280;41486;52.502;13.486;2023-02-11T00:10:32;102350.81;;;2.31;100.00
55610;BME280;41486;52.502;13.486;2023-02-11T00:13:00;102359.47;;;2.33;100.00
55610;BME280;41486;52.502;13.486;2023-02-11T00:15:28;102365.50;;;2.35;100.00
55610;BME280;41486;52.502;13.486;2023-02-11T00:17:56;102370.44;;;2.52;100.00
55610;BME280;41486;52.502;13.486;2023-02-11T00:20:25;102383.56;;;2.43;100.00
55610;BME280;41486;52.502;13.486;2023-02-11T00:22:55;102381.75;;;2.49;100.00
55610;BME280;41486;52.502;13.486;2023-02-11T00:25:23;102381.03;;;2.38;100.00
55610;BME280;41486;52.502;13.486;2023-02-11T00:27:51;102379.06;;;2.52;100.00
55610;BME280;41486;52.502;13.486;2023-02-11T00:30:19;102371.38;;;2.48;100.00
55610;BME280;41486;52.502;13.486;2023-02-11T00:32:47;102352.41;;;2.41;100.00
55610;BME280;41486;52.502;13.486;2023-02-11T00:35:15;102348.09;;;2.40;100.00
55610;BME280;41486;52.502;13.486;2023-02-11T00:37:44;102342.00;;;2.41;100.00
55610;BME280;41486;52.502;13.486;2023-02-11T00:40:12;102344.50;;;2.47;100.00
55610;BME280;41486;52.502;13.486;2023-02-11T00:42:41;102350.78;;;2.34;100.00
55610;BME280;41486;52.502;13.486;2023-02-11T00:45:09;102348.00;;;2.48;100.00
55610;BME280;41486;52.502;13.486;2023-02-11T00:47:38;102341.97;;;2.43;100.00
55610;BME280;41486;52.502;13.486;2023-02-11T00:50:06;102345.56;;;2.35;100.00
55610;BME280;41486;52.502;13.486;2023-02-11T00:52:34;102355.47;;;2.68;100.00
55610;BME280;41486;52.502;13.486;2023-02-11T00:55:04;102363.38;;;2.60;100.00
55610;BME280;41486;52.502;13.486;2023-02-11T00:57:32;102359.19;;;2.50;100.00
55610;BME280;41486;52.502;13.486;2023-02-11T01:00:00;102354.97;;;2.44;100.00
55610;BME280;41486;52.502;13.486;2023-02-11T01:02:28;102355.72;;;2.51;100.00
55610;BME280;41486;52.502;13.486;2023-02-11T01:04:56;102347.84;;;2.56;100.00
55610;BME280;41486;52.502;13.486;2023-02-11T01:07:26;102338.41;;;2.50;100.00
55610;BME280;41486;52.502;13.486;2023-02-11T01:09:54;102322.72;;;2.58;100.00
55610;BME280;41486;52.502;13.486;2023-02-11T01:12:24;102323.59;;;2.57;100.00
55610;BME280;41486;52.502;13.486;2023-02-11T01:14:52;102301.16;;;2.51;100.00
55610;BME280;41486;52.502;13.486;2023-02-11T01:17:20;102293.44;;;2.46;100.00
55610;BME280;41486;52.502;13.486;2023-02-11T01:19:48;102291.03;;;2.32;100.00
55610;BME280;41486;52.502;13.486;2023-02-11T01:22:17;102281.34;;;2.44;100.00
55610;BME280;41486;52.502;13.486;2023-02-11T01:24:46;102272.53;;;2.54;100.00
55610;BME280;41486;52.502;13.486;2023-02-11T01:27:14;102265.66;;;2.50;100.00
55610;BME280;41486;52.502;13.486;2023-02-11T01:29:44;102276.84;;;2.55;100.00
55610;BME280;41486;52.502;13.486;2023-02-11T01:32:12;102278.72;;;2.47;100.00
55610;BME280;41486;52.502;13.486;2023-02-11T01:34:40;102273.38;;;2.55;100.00
55610;BME280;41486;52.502;13.486;2023-02-11T01:37:08;102266.59;;;2.46;100.00
55610;BME280;41486;52.502;13.486;2023-02-11T01:39:36;102266.47;;;2.52;100.00
55610;BME280;41486;52.502;13.486;2023-02-11T01:42:04;102270.75;;;2.56;100.00
55610;BME280;41486;52.502;13.486;2023-02-11T01:44:34;102267.94;;;2.68;100.00
55610;BME280;41486;52.502;13.486;2023-02-11T01:47:05;102268.13;;;2.58;100.00
55610;BME280;41486;52.502;13.486;2023-02-11T01:49:35;102266.25;;;2.66;100.00
55610;BME280;41486;52.502;13.486;2023-02-11T01:52:09;102267.09;;;2.66;100.00
55610;BME280;41486;52.502;13.486;2023-02-11T01:54:41;102278.22;;;2.76;100.00
55610;BME280;41486;52.502;13.486;2023-02-11T01:57:30;102264.25;;;2.82;100.00
55610;BME280;41486;52.502;13.486;2023-02-11T02:00:07;102261.59;;;2.85;100.00
55610;BME280;41486;52.502;13.486;2023-02-11T02:02:49;102253.06;;;2.77;100.00
55610;BME280;41486;52.502;13.486;2023-02-11T02:05:25;102254.63;;;2.87;100.00
55610;BME280;41486;52.502;13.486;2023-02-11T02:08:01;102258.13;;;2.86;100.00
55610;BME280;41486;52.502;13.486;2023-02-11T02:10:30;102244.88;;;3.00;100.00
55610;BME280;41486;52.502;13.486;2023-02-11T02:13:00;102238.69;;;3.04;100.00
55610;BME280;41486;52.502;13.486;2023-02-11T02:15:29;102256.03;;;3.05;100.00
55610;BME280;41486;52.502;13.486;2023-02-11T02:18:24;102243.06;;;3.04;100.00
55610;BME280;41486;52.502;13.486;2023-02-11T02:21:28;102239.53;;;3.05;100.00
55610;BME280;41486;52.502;13.486;2023-02-11T02:24:25;102240.38;;;3.07;100.00
55610;BME280;41486;52.502;13.486;2023-02-11T02:27:23;102245.44;;;3.14;100.00
55610;BME280;41486;52.502;13.486;2023-02-11T02:33:19;102231.13;;;3.37;100.00
55610;BME280;41486;52.502;13.486;2023-02-11T02:36:00;102221.56;;;3.38;100.00
55610;BME280;41486;52.502;13.486;2023-02-11T02:38:33;102225.97;;;3.36;100.00
55610;BME280;41486;52.502;13.486;2023-02-11T02:41:07;102214.50;;;3.44;100.00
55610;BME280;41486;52.502;13.486;2023-02-11T02:43:39;102220.38;;;3.53;100.00
55610;BME280;41486;52.502;13.486;2023-02-11T02:46:12;102212.72;;;3.45;100.00
55610;BME280;41486;52.502;13.486;2023-02-11T02:48:42;102217.78;;;3.53;100.00
55610;BME280;41486;52.502;13.486;2023-02-11T02:51:24;102204.06;;;3.44;100.00
55610;BME280;41486;52.502;13.486;2023-02-11T02:54:02;102202.31;;;3.46;100.00
55610;BME280;41486;52.502;13.486;2023-02-11T02:56:38;102200.06;;;3.70;100.00
55610;BME280;41486;52.502;13.486;2023-02-11T02:59:29;102195.53;;;3.77;100.00
55610;BME280;41486;52.502;13.486;2023-02-11T03:02:05;102188.84;;;3.67;100.00
55610;BME280;41486;52.502;13.486;2023-02-11T03:04:46;102195.47;;;3.80;100.00
55610;BME280;41486;52.502;13.486;2023-02-11T03:07:22;102194.69;;;3.76;100.00
55610;BME280;41486;52.502;13.486;2023-02-11T03:09:58;102199.97;;;3.73;100.00
55610;BME280;41486;52.502;13.486;2023-02-11T03:12:30;102181.56;;;3.81;100.00
55610;BME280;41486;52.502;13.486;2023-02-11T03:15:00;102184.84;;;3.89;100.00
55610;BME280;41486;52.502;13.486;2023-02-11T03:17:30;102183.31;;;3.81;100.00
55610;BME280;41486;52.502;13.486;2023-02-11T03:20:03;102194.66;;;3.78;100.00
55610;BME280;41486;52.502;13.486;2023-02-11T03:22:37;102184.25;;;3.78;100.00
55610;BME280;41486;52.502;13.486;2023-02-11T03:25:07;102175.28;;;3.90;100.00
55610;BME280;41486;52.502;13.486;2023-02-11T03:27:40;102183.09;;;3.90;100.00
55610;BME280;41486;52.502;13.486;2023-02-11T03:30:13;102184.81;;;3.91;100.00
55610;BME280;41486;52.502;13.486;2023-02-11T03:32:49;102180.50;;;3.90;100.00
55610;BME280;41486;52.502;13.486;2023-02-11T03:35:22;102185.31;;;4.07;100.00
55610;BME280;41486;52.502;13.486;2023-02-11T03:37:53;102188.69;;;4.10;100.00
55610;BME280;41486;52.502;13.486;2023-02-11T03:40:24;102185.31;;;4.07;100.00
55610;BME280;41486;52.502;13.486;2023-02-11T03:42:57;102194.06;;;4.04;100.00
55610;BME280;41486;52.502;13.486;2023-02-11T03:45:26;102184.59;;;4.00;100.00
55610;BME280;41486;52.502;13.486;2023-02-11T03:47:57;102188.69;;;4.10;100.00
55610;BME280;41486;52.502;13.486;2023-02-11T03:50:29;102192.25;;;4.06;100.00
55610;BME280;41486;52.502;13.486;2023-02-11T03:53:00;102193.31;;;3.99;100.00
55610;BME280;41486;52.502;13.486;2023-02-11T03:55:32;102184.56;;;4.02;100.00
55610;BME280;41486;52.502;13.486;2023-02-11T03:58:02;102174.22;;;3.99;100.00
55610;BME280;41486;52.502;13.486;2023-02-11T04:00:31;102181.06;;;4.03;100.00
55610;BME280;41486;52.502;13.486;2023-02-11T04:02:59;102162.19;;;3.93;100.00
55610;BME280;41486;52.502;13.486;2023-02-11T04:05:28;102175.84;;;4.03;100.00
55610;BME280;41486;52.502;13.486;2023-02-11T04:07:57;102180.09;;;4.07;100.00
55610;BME280;41486;52.502;13.486;2023-02-11T04:10:25;102184.22;;;4.16;100.00
55610;BME280;41486;52.502;13.486;2023-02-11T04:12:53;102190.69;;;3.99;100.00
55610;BME280;41486;52.502;13.486;2023-02-11T04:15:22;102186.94;;;4.11;100.00
55610;BME280;41486;52.502;13.486;2023-02-11T04:17:50;102180.84;;;4.12;100.00
55610;BME280;41486;52.502;13.486;2023-02-11T04:20:18;102177.03;;;4.25;100.00
55610;BME280;41486;52.502;13.486;2023-02-11T04:22:48;102180.63;;;4.21;100.00
55610;BME280;41486;52.502;13.486;2023-02-11T04:25:16;102173.63;;;4.23;100.00
55610;BME280;41486;52.502;13.486;2023-02-11T04:27:44;102182.16;;;4.29;100.00
55610;BME280;41486;52.502;13.486;2023-02-11T04:30:12;102169.31;;;4.21;100.00
55610;BME280;41486;52.502;13.486;2023-02-11T04:32:40;102178.00;;;4.21;100.00
55610;BME280;41486;52.502;13.486;2023-02-11T04:35:08;102181.31;;;4.28;100.00
55610;BME280;41486;52.502;13.486;2023-02-11T04:37:36;102176.19;;;4.25;100.00
55610;BME280;41486;52.502;13.486;2023-02-11T04:40:07;102167.25;;;4.35;100.00
55610;BME280;41486;52.502;13.486;2023-02-11T04:42:35;102159.59;;;4.28;100.00
55610;BME280;41486;52.502;13.486;2023-02-11T04:45:03;102152.50;;;4.33;100.00
55610;BME280;41486;52.502;13.486;2023-02-11T04:47:32;102150.72;;;4.36;100.00
55610;BME280;41486;52.502;13.486;2023-02-11T04:50:00;102166.72;;;4.21;100.00
55610;BME280;41486;52.502;13.486;2023-02-11T04:52:28;102153.56;;;4.27;100.00
55610;BME280;41486;52.502;13.486;2023-02-11T04:54:56;102167.44;;;4.28;100.00
55610;BME280;41486;52.502;13.486;2023-02-11T04:57:26;102152.63;;;4.30;100.00
55610;BME280;41486;52.502;13.486;2023-02-11T04:59:54;102132.88;;;4.19;100.00
55610;BME280;41486;52.502;13.486;2023-02-11T05:02:21;102133.59;;;4.26;100.00
55610;BME280;41486;52.502;13.486;2023-02-11T05:04:49;102133.66;;;4.24;100.00
55610;BME280;41486;52.502;13.486;2023-02-11T05:07:17;102131.09;;;4.21;100.00
55610;BME280;41486;52.502;13.486;2023-02-11T05:09:45;102137.22;;;4.20;100.00
55610;BME280;41486;52.502;13.486;2023-02-11T05:12:13;102123.34;;;4.20;100.00
55610;BME280;41486;52.502;13.486;2023-02-11T05:14:43;102116.31;;;4.22;100.00
55610;BME280;41486;52.502;13.486;2023-02-11T05:17:11;102112.88;;;4.21;100.00
55610;BME280;41486;52.502;13.486;2023-02-11T05:19:40;102107.13;;;4.08;100.00
55610;BME280;41486;52.502;13.486;2023-02-11T05:22:08;102105.28;;;4.12;100.00
55610;BME280;41486;52.502;13.486;2023-02-11T05:24:36;102088.28;;;3.97;100.00
55610;BME280;41486;52.502;13.486;2023-02-11T05:27:04;102093.97;;;4.13;100.00
55610;BME280;41486;52.502;13.486;2023-02-11T05:29:32;102085.38;;;4.09;100.00
55610;BME280;41486;52.502;13.486;2023-02-11T05:32:01;102084.50;;;4.10;100.00
55610;BME280;41486;52.502;13.486;2023-02-11T05:34:29;102081.72;;;4.17;100.00
55610;BME280;41486;52.502;13.486;2023-02-11T05:36:57;102089.38;;;4.23;100.00
55610;BME280;41486;52.502;13.486;2023-02-11T05:39:25;102084.16;;;4.23;100.00
55610;BME280;41486;52.502;13.486;2023-02-11T05:41:53;102081.84;;;4.12;100.00
55610;BME280;41486;52.502;13.486;2023-02-11T05:44:21;102085.81;;;4.25;100.00
55610;BME280;41486;52.502;13.486;2023-02-11T05:46:49;102083.47;;;4.16;100.00
55610;BME280;41486;52.502;13.486;2023-02-11T05:49:19;102081.66;;;4.20;100.00
55610;BME280;41486;52.502;13.486;2023-02-11T05:51:50;102076.44;;;4.20;100.00
55610;BME280;41486;52.502;13.486;2023-02-11T05:54:18;102084.84;;;4.30;100.00
55610;BME280;41486;52.502;13.486;2023-02-11T05:56:46;102081.38;;;4.29;100.00
55610;BME280;41486;52.502;13.486;2023-02-11T05:59:14;102082.31;;;4.28;100.00
55610;BME280;41486;52.502;13.486;2023-02-11T06:01:42;102092.56;;;4.33;100.00
55610;BME280;41486;52.502;13.486;2023-02-11T06:04:10;102085.63;;;4.33;100.00
55610;BME280;41486;52.502;13.486;2023-02-11T06:06:40;102092.66;;;4.30;100.00
55610;BME280;41486;52.502;13.486;2023-02-11T06:09:08;102092.63;;;4.31;100.00
55610;BME280;41486;52.502;13.486;2023-02-11T06:11:37;102093.63;;;4.25;100.00
55610;BME280;41486;52.502;13.486;2023-02-11T06:14:05;102096.75;;;4.40;100.00
55610;BME280;41486;52.502;13.486;2023-02-11T06:16:33;102096.69;;;4.41;100.00
55610;BME280;41486;52.502;13.486;2023-02-11T06:19:01;102095.69;;;4.46;100.00
55610;BME280;41486;52.502;13.486;2023-02-11T06:21:29;102086.19;;;4.45;100.00
55610;BME280;41486;52.502;13.486;2023-02-11T06:24:11;102096.41;;;4.52;100.00
55610;BME280;41486;52.502;13.486;2023-02-11T06:26:39;102096.63;;;4.45;100.00
55610;BME280;41486;52.502;13.486;2023-02-11T06:29:07;102097.09;;;4.59;100.00
55610;BME280;41486;52.502;13.486;2023-02-11T06:31:37;102092.19;;;4.47;100.00
55610;BME280;41486;52.502;13.486;2023-02-11T06:34:05;102086.88;;;4.51;100.00
55610;BME280;41486;52.502;13.486;2023-02-11T06:36:34;102085.78;;;4.58;100.00
55610;BME280;41486;52.502;13.486;2023-02-11T06:39:03;102077.22;;;4.55;100.00
55610;BME280;41486;52.502;13.486;2023-02-11T06:41:33;102073.66;;;4.57;100.00
55610;BME280;41486;52.502;13.486;2023-02-11T06:44:03;102075.38;;;4.58;100.00
55610;BME280;41486;52.502;13.486;2023-02-11T06:46:31;102072.75;;;4.60;100.00
55610;BME280;41486;52.502;13.486;2023-02-11T06:49:02;102077.31;;;4.52;100.00
55610;BME280;41486;52.502;13.486;2023-02-11T06:51:32;102067.78;;;4.51;100.00
55610;BME280;41486;52.502;13.486;2023-02-11T06:54:00;102072.50;;;4.68;100.00
55610;BME280;41486;52.502;13.486;2023-02-11T06:56:28;102088.03;;;4.72;100.00
55610;BME280;41486;52.502;13.486;2023-02-11T06:59:01;102084.44;;;4.77;100.00
55610;BME280;41486;52.502;13.486;2023-02-11T07:01:30;102081.97;;;4.70;100.00
55610;BME280;41486;52.502;13.486;2023-02-11T07:04:00;102089.91;;;4.67;100.00
55610;BME280;41486;52.502;13.486;2023-02-11T07:06:28;102086.44;;;4.67;100.00
55610;BME280;41486;52.502;13.486;2023-02-11T07:08:56;102080.91;;;4.78;100.00
55610;BME280;41486;52.502;13.486;2023-02-11T07:11:26;102080.91;;;4.78;100.00
55610;BME280;41486;52.502;13.486;2023-02-11T07:13:56;102067.09;;;4.76;100.00
55610;BME280;41486;52.502;13.486;2023-02-11T07:16:27;102070.78;;;4.67;100.00
55610;BME280;41486;52.502;13.486;2023-02-11T07:18:56;102071.59;;;4.69;100.00
55610;BME280;41486;52.502;13.486;2023-02-11T07:21:24;102067.91;;;4.76;100.00
55610;BME280;41486;52.502;13.486;2023-02-11T07:23:54;102069.06;;;4.67;100.00
55610;BME280;41486;52.502;13.486;2023-02-11T07:26:23;102066.59;;;4.61;100.00
55610;BME280;41486;52.502;13.486;2023-02-11T07:28:51;102065.38;;;4.74;100.00
55610;BME280;41486;52.502;13.486;2023-02-11T07:31:24;102073.44;;;4.65;100.00
55610;BME280;41486;52.502;13.486;2023-02-11T07:33:56;102053.50;;;4.64;100.00
55610;BME280;41486;52.502;13.486;2023-02-11T07:36:26;102058.56;;;4.69;100.00
55610;BME280;41486;52.502;13.486;2023-02-11T07:38:54;102049.97;;;4.65;100.00
55610;BME280;41486;52.502;13.486;2023-02-11T07:41:23;102051.69;;;4.66;100.00
55610;BME280;41486;52.502;13.486;2023-02-11T07:43:52;102064.41;;;4.77;100.00
55610;BME280;41486;52.502;13.486;2023-02-11T07:46:22;102056.81;;;4.69;100.00
55610;BME280;41486;52.502;13.486;2023-02-11T07:48:51;102054.38;;;4.63;100.00
55610;BME280;41486;52.502;13.486;2023-02-11T07:51:22;102061.13;;;4.70;100.00
55610;BME280;41486;52.502;13.486;2023-02-11T07:53:50;102071.34;;;4.78;100.00
55610;BME280;41486;52.502;13.486;2023-02-11T07:56:20;102060.78;;;4.83;100.00
55610;BME280;41486;52.502;13.486;2023-02-11T07:58:49;102061.50;;;4.88;100.00
55610;BME280;41486;52.502;13.486;2023-02-11T08:01:19;102060.66;;;4.87;100.00
55610;BME280;41486;52.502;13.486;2023-02-11T08:03:48;102055.44;;;4.87;100.00
55610;BME280;41486;52.502;13.486;2023-02-11T08:06:18;102062.19;;;4.95;100.00
55610;BME280;41486;52.502;13.486;2023-02-11T08:08:48;102063.69;;;5.02;100.00
55610;BME280;41486;52.502;13.486;2023-02-11T08:11:18;102075.09;;;4.99;100.00
55610;BME280;41486;52.502;13.486;2023-02-11T08:13:46;102091.53;;;5.01;100.00
55610;BME280;41486;52.502;13.486;2023-02-11T08:16:17;102084.28;;;5.11;100.00
55610;BME280;41486;52.502;13.486;2023-02-11T08:18:47;102092.88;;;5.15;100.00
55610;BME280;41486;52.502;13.486;2023-02-11T08:21:16;102104.91;;;5.20;100.00
55610;BME280;41486;52.502;13.486;2023-02-11T08:23:46;102099.56;;;5.24;100.00
55610;BME280;41486;52.502;13.486;2023-02-11T08:26:19;102099.22;;;5.36;100.00
55610;BME280;41486;52.502;13.486;2023-02-11T08:28:49;102102.91;;;5.29;100.00
55610;BME280;41486;52.502;13.486;2023-02-11T08:31:19;102095.06;;;5.29;100.00
55610;BME280;41486;52.502;13.486;2023-02-11T08:33:48;102085.44;;;5.31;100.00
55610;BME280;41486;52.502;13.486;2023-02-11T08:36:18;102086.28;;;5.31;100.00
55610;BME280;41486;52.502;13.486;2023-02-11T08:38:47;102106.78;;;5.44;100.00
55610;BME280;41486;52.502;13.486;2023-02-11T08:41:17;102109.41;;;5.44;100.00
55610;BME280;41486;52.502;13.486;2023-02-11T08:43:48;102111.25;;;5.40;100.00
55610;BME280;41486;52.502;13.486;2023-02-11T08:46:18;102112.88;;;5.44;100.00
55610;BME280;41486;52.502;13.486;2023-02-11T08:48:47;102105.06;;;5.43;100.00
55610;BME280;41486;52.502;13.486;2023-02-11T08:51:17;102098.09;;;5.43;100.00
55610;BME280;41486;52.502;13.486;2023-02-11T08:53:47;102085.91;;;5.44;100.00
55610;BME280;41486;52.502;13.486;2023-02-11T08:56:18;102077.25;;;5.42;100.00
55610;BME280;41486;52.502;13.486;2023-02-11T08:58:47;102068.72;;;5.36;100.00
55610;BME280;41486;52.502;13.486;2023-02-11T09:01:18;102070.75;;;5.55;100.00
55610;BME280;41486;52.502;13.486;2023-02-11T09:03:49;102083.09;;;5.50;100.00
55610;BME280;41486;52.502;13.486;2023-02-11T09:06:18;102081.38;;;5.49;100.00
55610;BME280;41486;52.502;13.486;2023-02-11T09:08:50;102061.22;;;5.54;100.00
55610;BME280;41486;52.502;13.486;2023-02-11T09:11:23;102069.03;;;5.54;100.00
55610;BME280;41486;52.502;13.486;2023-02-11T09:13:52;102081.44;;;5.47;100.00
55610;BME280;41486;52.502;13.486;2023-02-11T09:16:23;102090.06;;;5.49;100.00
55610;BME280;41486;52.502;13.486;2023-02-11T09:18:51;102088.16;;;5.55;100.00
55610;BME280;41486;52.502;13.486;2023-02-11T09:21:20;102087.31;;;5.54;100.00
55610;BME280;41486;52.502;13.486;2023-02-11T09:23:48;102083.75;;;5.57;100.00
55610;BME280;41486;52.502;13.486;2023-02-11T09:26:17;102085.31;;;5.62;100.00
55610;BME280;41486;52.502;13.486;2023-02-11T09:28:47;102107.78;;;5.68;100.00
55610;BME280;41486;52.502;13.486;2023-02-11T09:31:16;102098.22;;;5.67;100.00
55610;BME280;41486;52.502;13.486;2023-02-11T09:33:47;102092.03;;;5.69;100.00
55610;BME280;41486;52.502;13.486;2023-02-11T09:36:17;102107.81;;;5.66;100.00
55610;BME280;41486;52.502;13.486;2023-02-11T09:38:46;102103.44;;;5.67;100.00
55610;BME280;41486;52.502;13.486;2023-02-11T09:41:36;102125.03;;;5.72;100.00
55610;BME280;41486;52.502;13.486;2023-02-11T09:44:15;102124.06;;;5.76;100.00
55610;BME280;41486;52.502;13.486;2023-02-11T09:46:47;102116.25;;;5.75;100.00
55610;BME280;41486;52.502;13.486;2023-02-11T09:49:18;102122.53;;;5.69;100.00
55610;BME280;41486;52.502;13.486;2023-02-11T09:51:51;102122.38;;;5.74;100.00
55610;BME280;41486;52.502;13.486;2023-02-11T09:54:26;102124.91;;;5.77;100.00
55610;BME280;41486;52.502;13.486;2023-02-11T09:56:56;102123.25;;;5.74;100.00
55610;BME280;41486;52.502;13.486;2023-02-11T09:59:26;102143.94;;;5.80;100.00
55610;BME280;41486;52.502;13.486;2023-02-11T10:01:57;102142.06;;;5.84;100.00
55610;BME280;41486;52.502;13.486;2023-02-11T10:04:41;102128.19;;;5.83;100.00
55610;BME280;41486;52.502;13.486;2023-02-11T10:07:18;102131.56;;;5.85;100.00
55610;BME280;41486;52.502;13.486;2023-02-11T10:10:03;102134.03;;;5.90;100.00
55610;BME280;41486;52.502;13.486;2023-02-11T10:12:46;102139.22;;;5.92;100.00
55610;BME280;41486;52.502;13.486;2023-02-11T10:15:23;102140.88;;;5.94;100.00
55610;BME280;41486;52.502;13.486;2023-02-11T10:18:04;102144.31;;;5.96;100.00
55610;BME280;41486;52.502;13.486;2023-02-11T10:20:36;102141.63;;;5.98;100.00
55610;BME280;41486;52.502;13.486;2023-02-11T10:23:11;102140.97;;;5.91;100.00
55610;BME280;41486;52.502;13.486;2023-02-11T10:25:43;102146.00;;;5.97;100.00
55610;BME280;41486;52.502;13.486;2023-02-11T10:28:14;102139.56;;;5.81;100.00
55610;BME280;41486;52.502;13.486;2023-02-11T10:30:50;102164.47;;;5.91;100.00
55610;BME280;41486;52.502;13.486;2023-02-11T10:33:24;102158.22;;;5.97;100.00
55610;BME280;41486;52.502;13.486;2023-02-11T10:35:53;102147.25;;;5.85;100.00
55610;BME280;41486;52.502;13.486;2023-02-11T10:38:28;102146.41;;;5.85;100.00
55610;BME280;41486;52.502;13.486;2023-02-11T10:40:56;102136.84;;;5.84;100.00
55610;BME280;41486;52.502;13.486;2023-02-11T10:43:27;102140.44;;;5.81;100.00
55610;BME280;41486;52.502;13.486;2023-02-11T10:45:58;102131.53;;;5.87;100.00
55610;BME280;41486;52.502;13.486;2023-02-11T10:48:41;102117.66;;;5.85;100.00
55610;BME280;41486;52.502;13.486;2023-02-11T10:51:17;102115.81;;;5.89;100.00
55610;BME280;41486;52.502;13.486;2023-02-11T10:53:47;102110.50;;;5.92;100.00
55610;BME280;41486;52.502;13.486;2023-02-11T10:56:21;102133.44;;;5.82;100.00
55610;BME280;41486;52.502;13.486;2023-02-11T10:58:58;102132.53;;;5.83;100.00
55610;BME280;41486;52.502;13.486;2023-02-11T11:01:39;102129.16;;;5.79;100.00
55610;BME280;41486;52.502;13.486;2023-02-11T11:04:33;102111.78;;;5.78;100.00
55610;BME280;41486;52.502;13.486;2023-02-11T11:07:10;102101.31;;;5.78;100.00
55610;BME280;41486;52.502;13.486;2023-02-11T11:09:45;102105.50;;;5.84;100.00
55610;BME280;41486;52.502;13.486;2023-02-11T11:12:34;102114.25;;;5.83;100.00
55610;BME280;41486;52.502;13.486;2023-02-11T11:15:16;102105.44;;;5.85;100.00
55610;BME280;41486;52.502;13.486;2023-02-11T11:17:47;102107.00;;;5.91;100.00
55610;BME280;41486;52.502;13.486;2023-02-11T11:20:22;102107.06;;;5.90;100.00
55610;BME280;41486;52.502;13.486;2023-02-11T11:22:51;102106.19;;;5.89;100.00
55610;BME280;41486;52.502;13.486;2023-02-11T11:25:23;102102.66;;;5.92;100.00
55610;BME280;41486;52.502;13.486;2023-02-11T11:27:55;102094.84;;;5.90;100.00
55610;BME280;41486;52.502;13.486;2023-02-11T11:30:27;102099.00;;;5.96;100.00
55610;BME280;41486;52.502;13.486;2023-02-11T11:32:59;102103.50;;;5.92;100.00
55610;BME280;41486;52.502;13.486;2023-02-11T11:35:29;102112.09;;;5.96;100.00
55610;BME280;41486;52.502;13.486;2023-02-11T11:38:01;102111.25;;;5.95;100.00
55610;BME280;41486;52.502;13.486;2023-02-11T11:40:31;102112.97;;;5.95;100.00
55610;BME280;41486;52.502;13.486;2023-02-11T11:43:16;102113.84;;;5.95;100.00
55610;BME280;41486;52.502;13.486;2023-02-11T11:45:53;102107.56;;;6.01;100.00
55610;BME280;41486;52.502;13.486;2023-02-11T11:48:25;102103.34;;;5.97;100.00
55610;BME280;41486;52.502;13.486;2023-02-11T11:50:57;102097.91;;;6.05;100.00
55610;BME280;41486;52.502;13.486;2023-02-11T11:53:31;102104.72;;;6.09;100.00
55610;BME280;41486;52.502;13.486;2023-02-11T11:56:05;102113.41;;;6.09;100.00
55610;BME280;41486;52.502;13.486;2023-02-11T11:58:36;102116.66;;;6.16;100.00
55610;BME280;41486;52.502;13.486;2023-02-11T12:01:24;102104.41;;;6.18;100.00
55610;BME280;41486;52.502;13.486;2023-02-11T12:04:16;102115.69;;;6.19;100.00
55610;BME280;41486;52.502;13.486;2023-02-11T12:06:56;102093.81;;;6.21;100.00
55610;BME280;41486;52.502;13.486;2023-02-11T12:09:34;102095.53;;;6.22;100.00
55610;BME280;41486;52.502;13.486;2023-02-11T12:12:16;102092.59;;;6.31;100.00
55610;BME280;41486;52.502;13.486;2023-02-11T12:15:01;102101.31;;;6.32;100.00
55610;BME280;41486;52.502;13.486;2023-02-11T12:17:47;102092.44;;;6.36;100.00
55610;BME280;41486;52.502;13.486;2023-02-11T12:20:26;102090.72;;;6.35;100.00
55610;BME280;41486;52.502;13.486;2023-02-11T12:23:16;102090.50;;;6.41;100.00
55610;BME280;41486;52.502;13.486;2023-02-11T12:25:53;102091.31;;;6.43;100.00
55610;BME280;41486;52.502;13.486;2023-02-11T12:28:35;102085.25;;;6.43;100.00
55610;BME280;41486;52.502;13.486;2023-02-11T12:31:19;102092.88;;;6.49;100.00
55610;BME280;41486;52.502;13.486;2023-02-11T12:34:16;102096.44;;;6.46;100.00
55610;BME280;41486;52.502;13.486;2023-02-11T12:36:59;102092.88;;;6.49;100.00
55610;BME280;41486;52.502;13.486;2023-02-11T12:39:40;102104.06;;;6.53;100.00
55610;BME280;41486;52.502;13.486;2023-02-11T12:42:18;102105.84;;;6.52;100.00
55610;BME280;41486;52.502;13.486;2023-02-11T12:45:17;102098.09;;;6.49;100.00
55610;BME280;41486;52.502;13.486;2023-02-11T12:47:59;102099.69;;;6.53;100.00
55610;BME280;41486;52.502;13.486;2023-02-11T12:50:36;102107.59;;;6.52;100.00
55610;BME280;41486;52.502;13.486;2023-02-11T12:53:29;102112.75;;;6.53;100.00
55610;BME280;41486;52.502;13.486;2023-02-11T12:56:04;102112.56;;;6.59;100.00
55610;BME280;41486;52.502;13.486;2023-02-11T12:58:34;102107.50;;;6.55;100.00
55610;BME280;41486;52.502;13.486;2023-02-11T13:01:16;102116.06;;;6.58;100.00
55610;BME280;41486;52.502;13.486;2023-02-11T13:03:47;102111.00;;;6.54;100.00
55610;BME280;41486;52.502;13.486;2023-02-11T13:06:20;102111.84;;;6.54;100.00
55610;BME280;41486;52.502;13.486;2023-02-11T13:08:53;102112.94;;;6.49;100.00